createdAt,value
2022-12-22T00:02:39.440Z,4.30
2022-12-22T00:05:36.781Z,4.20
2022-12-22T00:08:22.962Z,4.10
2022-12-22T00:11:09.554Z,4.20
2022-12-22T00:13:55.238Z,4.10
2022-12-22T00:16:42.618Z,4.20
2022-12-22T00:19:32.339Z,4.30
2022-12-22T00:22:30.942Z,4.40
2022-12-22T00:25:16.670Z,4.70
2022-12-22T00:28:02.384Z,4.80
2022-12-22T00:30:47.952Z,4.80
2022-12-22T00:33:35.775Z,4.70
2022-12-22T00:36:23.068Z,4.60
2022-12-22T00:39:08.641Z,4.80
2022-12-22T00:41:54.286Z,4.90
2022-12-22T00:44:40.136Z,5.00
2022-12-22T00:47:43.284Z,5.00
2022-12-22T00:50:29.238Z,5.00
2022-12-22T00:53:15.984Z,4.90
2022-12-22T00:56:01.573Z,4.90
2022-12-22T00:58:47.250Z,4.80
2022-12-22T01:01:32.945Z,4.70
2022-12-22T01:04:18.788Z,4.80
2022-12-22T01:07:04.409Z,4.70
2022-12-22T01:09:49.911Z,4.70
2022-12-22T01:12:45.187Z,4.70
2022-12-22T01:15:33.025Z,4.70
2022-12-22T01:18:18.748Z,4.60
2022-12-22T01:21:04.314Z,4.60
2022-12-22T01:23:50.064Z,4.60
2022-12-22T01:26:35.668Z,4.60
2022-12-22T01:29:21.115Z,4.60
2022-12-22T01:32:06.718Z,4.60
2022-12-22T01:34:52.369Z,4.80
2022-12-22T01:37:38.039Z,4.90
2022-12-22T01:40:24.207Z,5.00
2022-12-22T01:43:09.477Z,5.00
2022-12-22T01:45:56.041Z,5.00
2022-12-22T01:48:49.252Z,5.30
2022-12-22T01:51:46.493Z,5.60
2022-12-22T01:54:33.651Z,5.70
2022-12-22T01:57:20.372Z,5.70
2022-12-22T02:00:05.991Z,5.80
2022-12-22T02:02:51.729Z,6.10
2022-12-22T02:05:39.633Z,6.30
2022-12-22T02:08:46.144Z,6.50
2022-12-22T02:12:03.717Z,6.60
2022-12-22T02:15:39.637Z,6.60
2022-12-22T02:19:03.631Z,6.50
2022-12-22T02:22:10.509Z,6.50
2022-12-22T02:25:08.664Z,6.30
2022-12-22T02:27:57.866Z,6.30
2022-12-22T02:30:45.007Z,6.50
2022-12-22T02:33:31.943Z,6.60
2022-12-22T02:36:32.285Z,6.60
2022-12-22T02:39:45.096Z,6.60
2022-12-22T02:42:36.255Z,6.60
2022-12-22T02:45:37.306Z,6.60
2022-12-22T02:48:24.455Z,6.60
2022-12-22T02:51:36.201Z,6.60
2022-12-22T02:54:23.452Z,6.50
2022-12-22T02:57:08.950Z,6.50
2022-12-22T02:59:54.568Z,6.40
2022-12-22T03:02:40.724Z,6.30
2022-12-22T03:05:26.286Z,6.30
2022-12-22T03:08:12.083Z,6.30
2022-12-22T03:10:57.680Z,6.30
2022-12-22T03:13:43.380Z,6.30
2022-12-22T03:16:28.967Z,6.30
2022-12-22T03:19:14.565Z,6.20
2022-12-22T03:22:00.279Z,6.20
2022-12-22T03:24:48.753Z,6.20
2022-12-22T03:27:15.762Z,6.20
2022-12-22T03:29:42.767Z,6.20
2022-12-22T03:32:09.687Z,6.20
2022-12-22T03:34:36.629Z,6.30
2022-12-22T03:37:03.571Z,6.20
2022-12-22T03:39:30.676Z,6.20
2022-12-22T03:42:16.409Z,6.20
2022-12-22T03:45:02.165Z,6.30
2022-12-22T03:47:30.685Z,6.30
2022-12-22T03:49:57.661Z,6.30
2022-12-22T03:52:24.669Z,6.20
2022-12-22T03:54:51.616Z,6.30
2022-12-22T03:57:18.516Z,6.30
2022-12-22T03:59:45.566Z,6.30
2022-12-22T04:02:12.583Z,6.30
2022-12-22T04:04:39.571Z,6.30
2022-12-22T04:07:06.600Z,6.30
2022-12-22T04:09:34.409Z,6.30
2022-12-22T04:12:20.242Z,6.30
2022-12-22T04:14:47.124Z,6.30
2022-12-22T04:17:14.063Z,6.20
2022-12-22T04:19:41.045Z,6.10
2022-12-22T04:22:08.071Z,6.10
2022-12-22T04:24:35.070Z,6.00
2022-12-22T04:27:02.053Z,6.00
2022-12-22T04:29:29.191Z,5.90
2022-12-22T04:31:56.192Z,5.80
2022-12-22T04:34:23.242Z,5.80
2022-12-22T04:36:50.148Z,5.70
2022-12-22T04:39:17.071Z,5.70
2022-12-22T04:41:44.799Z,5.60
2022-12-22T04:44:11.753Z,5.60
2022-12-22T04:46:38.732Z,5.60
2022-12-22T04:49:05.663Z,5.60
2022-12-22T04:51:32.746Z,5.60
2022-12-22T04:53:59.797Z,5.60
2022-12-22T04:56:26.744Z,5.60
2022-12-22T04:58:53.710Z,5.60
2022-12-22T05:01:21.089Z,5.50
2022-12-22T05:03:48.573Z,5.50
2022-12-22T05:06:16.128Z,5.60
2022-12-22T05:08:43.208Z,5.60
2022-12-22T05:11:10.683Z,5.50
2022-12-22T05:13:37.801Z,5.50
2022-12-22T05:16:07.085Z,5.40
2022-12-22T05:18:36.078Z,5.40
2022-12-22T05:21:12.108Z,5.30
2022-12-22T05:23:39.185Z,5.10
2022-12-22T05:26:06.784Z,4.90
2022-12-22T05:28:33.831Z,4.70
2022-12-22T05:31:10.030Z,4.70
2022-12-22T05:33:37.264Z,4.60
2022-12-22T05:36:04.603Z,4.70
2022-12-22T05:38:31.662Z,4.70
2022-12-22T05:41:03.874Z,4.70
2022-12-22T05:43:32.531Z,4.70
2022-12-22T05:46:03.298Z,4.70
2022-12-22T05:48:37.015Z,4.70
2022-12-22T05:51:05.558Z,4.70
2022-12-22T05:53:32.439Z,4.80
2022-12-22T05:55:59.417Z,4.80
2022-12-22T05:58:26.459Z,4.90
2022-12-22T06:00:58.124Z,5.00
2022-12-22T06:03:26.618Z,5.00
2022-12-22T06:05:54.452Z,4.90
2022-12-22T06:08:21.482Z,4.90
2022-12-22T06:10:48.664Z,4.90
2022-12-22T06:13:15.769Z,4.80
2022-12-22T06:15:42.765Z,4.80
2022-12-22T06:18:09.701Z,4.70
2022-12-22T06:20:36.690Z,4.70
2022-12-22T06:23:03.809Z,4.70
2022-12-22T06:25:30.730Z,4.70
2022-12-22T06:27:57.663Z,4.70
2022-12-22T06:30:30.984Z,4.70
2022-12-22T06:33:01.144Z,4.60
2022-12-22T06:35:28.672Z,4.60
2022-12-22T06:37:55.785Z,4.50
2022-12-22T06:40:22.887Z,4.60
2022-12-22T06:43:09.549Z,4.60
2022-12-22T06:45:45.888Z,4.70
2022-12-22T06:48:13.720Z,4.90
2022-12-22T06:50:41.020Z,5.10
2022-12-22T06:53:08.750Z,5.10
2022-12-22T06:55:36.816Z,5.10
2022-12-22T06:58:04.853Z,5.10
2022-12-22T07:00:32.017Z,5.20
2022-12-22T07:02:59.261Z,5.30
2022-12-22T07:05:26.523Z,5.30
2022-12-22T07:07:53.866Z,5.30
2022-12-22T07:10:40.820Z,5.40
2022-12-22T07:13:19.587Z,5.30
2022-12-22T07:15:57.645Z,5.30
2022-12-22T07:18:28.906Z,5.30
2022-12-22T07:20:55.885Z,5.30
2022-12-22T07:23:23.074Z,5.30
2022-12-22T07:25:50.010Z,5.20
2022-12-22T07:28:20.901Z,5.10
2022-12-22T07:30:51.471Z,5.10
2022-12-22T07:33:19.484Z,5.10
2022-12-22T07:35:47.012Z,5.10
2022-12-22T07:38:14.444Z,5.10
2022-12-22T07:40:42.398Z,5.10
2022-12-22T07:43:10.264Z,5.10
2022-12-22T07:45:37.312Z,5.10
2022-12-22T07:48:24.799Z,5.10
2022-12-22T07:50:51.759Z,5.00
2022-12-22T07:53:18.650Z,5.10
2022-12-22T07:55:45.571Z,5.10
2022-12-22T07:58:12.505Z,5.10
2022-12-22T08:00:39.435Z,5.00
2022-12-22T08:03:06.484Z,5.00
2022-12-22T08:05:33.515Z,5.00
2022-12-22T08:08:00.468Z,5.00
2022-12-22T08:10:27.397Z,5.10
2022-12-22T08:12:54.396Z,5.10
2022-12-22T08:15:21.359Z,5.10
2022-12-22T08:17:48.256Z,5.20
2022-12-22T08:20:15.341Z,5.20
2022-12-22T08:22:42.247Z,5.20
2022-12-22T08:25:09.465Z,5.20
2022-12-22T08:27:44.767Z,5.20
2022-12-22T08:30:12.462Z,5.20
2022-12-22T08:32:41.198Z,5.10
2022-12-22T08:35:09.688Z,5.10
2022-12-22T08:37:41.491Z,5.10
2022-12-22T08:40:12.966Z,5.10
2022-12-22T08:42:40.566Z,5.20
2022-12-22T08:45:09.473Z,5.30
2022-12-22T08:47:36.478Z,5.30
2022-12-22T08:50:04.182Z,5.30
2022-12-22T08:52:31.750Z,5.20
2022-12-22T08:54:58.649Z,5.20
2022-12-22T08:57:25.490Z,5.20
2022-12-22T08:59:52.340Z,5.20
2022-12-22T09:02:19.359Z,5.20
2022-12-22T09:04:46.289Z,5.30
2022-12-22T09:07:13.147Z,5.30
2022-12-22T09:09:40.065Z,5.30
2022-12-22T09:12:07.214Z,5.40
2022-12-22T09:14:34.316Z,5.40
2022-12-22T09:17:01.290Z,5.50
2022-12-22T09:19:28.676Z,5.40
2022-12-22T09:21:55.901Z,5.50
2022-12-22T09:24:22.824Z,5.60
2022-12-22T09:26:49.916Z,5.70
2022-12-22T09:29:17.160Z,5.80
2022-12-22T09:31:44.542Z,5.80
2022-12-22T09:34:17.662Z,5.90
2022-12-22T09:36:46.128Z,5.90
2022-12-22T09:39:13.103Z,6.00
2022-12-22T09:41:51.271Z,6.00
2022-12-22T09:44:28.529Z,6.10
2022-12-22T09:46:59.071Z,6.00
2022-12-22T09:49:26.356Z,6.00
2022-12-22T09:51:58.051Z,6.00
2022-12-22T09:54:26.108Z,5.90
2022-12-22T09:56:53.015Z,6.00
2022-12-22T09:59:21.450Z,6.10
2022-12-22T10:02:20.613Z,6.10
2022-12-22T10:05:19.602Z,6.20
2022-12-22T10:07:46.538Z,6.20
2022-12-22T10:10:24.895Z,6.20
2022-12-22T10:12:54.600Z,6.20
2022-12-22T10:15:22.227Z,6.30
2022-12-22T10:17:54.403Z,6.30
2022-12-22T10:20:27.085Z,6.30
2022-12-22T10:23:02.323Z,6.40
2022-12-22T10:26:17.399Z,6.50
2022-12-22T10:28:27.935Z,6.50
2022-12-22T10:31:21.254Z,6.60
2022-12-22T10:33:54.013Z,6.60
2022-12-22T10:36:32.367Z,6.60
2022-12-22T10:39:05.478Z,6.60
2022-12-22T10:41:45.390Z,6.50
2022-12-22T10:44:23.127Z,6.50
2022-12-22T10:46:52.078Z,6.50
2022-12-22T10:49:29.771Z,6.40
2022-12-22T10:52:27.328Z,6.30
2022-12-22T10:55:16.208Z,6.30
2022-12-22T10:57:43.269Z,6.20
2022-12-22T11:00:30.569Z,6.20
2022-12-22T11:03:00.703Z,6.20
2022-12-22T11:05:28.648Z,6.30
2022-12-22T11:07:56.202Z,6.30
2022-12-22T11:10:23.077Z,6.50
2022-12-22T11:13:02.882Z,6.60
2022-12-22T11:15:48.439Z,6.60
2022-12-22T11:19:02.041Z,6.70
2022-12-22T11:21:54.878Z,6.80
2022-12-22T11:24:36.052Z,6.90
2022-12-22T11:27:47.630Z,7.00
2022-12-22T11:30:21.383Z,7.00
2022-12-22T11:32:54.152Z,7.00
2022-12-22T11:35:35.082Z,7.00
2022-12-22T11:38:23.460Z,6.90
2022-12-22T11:41:07.604Z,6.80
2022-12-22T11:44:00.196Z,6.70
2022-12-22T11:46:52.846Z,6.70
2022-12-22T11:50:50.547Z,6.70
2022-12-22T11:52:57.179Z,6.70
2022-12-22T11:55:39.442Z,6.80
2022-12-22T11:58:28.239Z,6.70
2022-12-22T12:01:20.374Z,6.70
2022-12-22T12:04:18.459Z,6.70
2022-12-22T12:07:00.711Z,6.70
2022-12-22T12:09:51.167Z,6.60
2022-12-22T12:12:42.493Z,6.60
2022-12-22T12:15:18.456Z,6.70
2022-12-22T12:17:51.510Z,6.70
2022-12-22T12:20:35.603Z,6.60
2022-12-22T12:23:24.413Z,6.60
2022-12-22T12:26:03.417Z,6.60
2022-12-22T12:28:45.753Z,6.60
2022-12-22T12:31:18.091Z,6.60
2022-12-22T12:33:54.275Z,6.60
2022-12-22T12:36:40.095Z,6.60
2022-12-22T12:39:09.951Z,6.60
2022-12-22T12:42:14.234Z,6.70
2022-12-22T12:44:41.889Z,6.60
2022-12-22T12:47:22.233Z,6.70
2022-12-22T12:49:54.362Z,6.70
2022-12-22T12:52:39.698Z,6.80
2022-12-22T12:55:31.565Z,6.80
2022-12-22T12:58:04.307Z,6.90
2022-12-22T13:00:34.843Z,7.00
2022-12-22T13:03:05.726Z,7.10
2022-12-22T13:05:50.895Z,7.10
2022-12-22T13:08:29.936Z,7.00
2022-12-22T13:10:57.098Z,7.10
2022-12-22T13:13:24.214Z,7.10
2022-12-22T13:16:00.347Z,7.10
2022-12-22T13:18:30.049Z,7.10
2022-12-22T13:21:50.991Z,7.10
2022-12-22T13:24:23.019Z,7.10
2022-12-22T13:26:44.665Z,7.10
2022-12-22T13:29:34.400Z,7.00
2022-12-22T13:32:19.086Z,7.00
2022-12-22T13:35:30.313Z,6.90
2022-12-22T13:37:54.179Z,6.80
2022-12-22T13:40:24.744Z,6.80
2022-12-22T13:43:04.624Z,6.80
2022-12-22T13:45:31.500Z,6.70
2022-12-22T13:48:00.940Z,6.70
2022-12-22T13:50:38.874Z,6.70
2022-12-22T13:53:09.258Z,6.70
2022-12-22T13:55:36.956Z,6.60
2022-12-22T13:58:19.699Z,6.50
2022-12-22T14:00:46.812Z,6.50
2022-12-22T14:03:49.590Z,6.50
2022-12-22T14:06:32.026Z,6.40
2022-12-22T14:09:12.319Z,6.30
2022-12-22T14:11:41.712Z,6.40
2022-12-22T14:14:17.989Z,6.40
2022-12-22T14:16:48.797Z,6.40
2022-12-22T14:19:17.607Z,6.50
2022-12-22T14:21:49.790Z,6.50
2022-12-22T14:24:23.394Z,6.50
2022-12-22T14:26:52.440Z,6.40
2022-12-22T14:29:23.224Z,6.40
2022-12-22T14:31:58.620Z,6.40
2022-12-22T14:34:28.123Z,6.40
2022-12-22T14:36:55.317Z,6.40
2022-12-22T14:39:25.041Z,6.40
2022-12-22T14:42:01.185Z,6.30
2022-12-22T14:44:44.826Z,6.30
2022-12-22T14:47:17.918Z,6.30
2022-12-22T14:50:04.753Z,6.30
2022-12-22T14:52:45.531Z,6.30
2022-12-22T14:55:28.686Z,6.20
2022-12-22T14:58:00.608Z,6.20
2022-12-22T15:00:32.799Z,6.20
2022-12-22T15:03:04.140Z,6.20
2022-12-22T15:05:38.385Z,6.10
2022-12-22T15:08:09.319Z,6.10
2022-12-22T15:10:46.004Z,6.00
2022-12-22T15:13:24.534Z,6.00
2022-12-22T15:15:52.702Z,5.90
2022-12-22T15:18:26.694Z,5.90
2022-12-22T15:20:57.754Z,5.80
2022-12-22T15:23:24.740Z,5.80
2022-12-22T15:25:51.981Z,5.80
2022-12-22T15:28:18.908Z,5.80
2022-12-22T15:30:45.980Z,5.70
2022-12-22T15:33:19.208Z,5.70
2022-12-22T15:35:46.799Z,5.60
2022-12-22T15:38:22.746Z,5.60
2022-12-22T15:40:50.478Z,5.60
2022-12-22T15:43:53.936Z,5.60
2022-12-22T15:46:06.764Z,5.60
2022-12-22T15:48:36.366Z,5.50
2022-12-22T15:51:05.842Z,5.40
2022-12-22T15:53:34.307Z,5.40
2022-12-22T15:56:01.781Z,5.40
2022-12-22T15:58:33.132Z,5.30
2022-12-22T16:01:00.227Z,5.30
2022-12-22T16:03:27.401Z,5.30
2022-12-22T16:05:54.698Z,5.40
2022-12-22T16:08:29.027Z,5.30
2022-12-22T16:10:56.049Z,5.30
2022-12-22T16:13:27.182Z,5.20
2022-12-22T16:15:56.548Z,5.20
2022-12-22T16:18:23.717Z,5.20
2022-12-22T16:20:50.944Z,5.20
2022-12-22T16:23:24.152Z,5.20
2022-12-22T16:25:57.026Z,5.10
2022-12-22T16:28:28.189Z,5.10
2022-12-22T16:30:55.109Z,5.10
2022-12-22T16:33:22.122Z,5.00
2022-12-22T16:35:49.194Z,5.00
2022-12-22T16:38:19.011Z,5.00
2022-12-22T16:40:50.112Z,5.00
2022-12-22T16:46:23.151Z,5.10
2022-12-22T16:48:59.861Z,5.10
2022-12-22T16:51:34.295Z,5.10
2022-12-22T16:54:01.970Z,5.10
2022-12-22T16:56:30.621Z,5.10
2022-12-22T16:58:58.085Z,5.20
2022-12-22T17:01:38.942Z,5.20
2022-12-22T17:04:20.351Z,5.30
2022-12-22T17:06:49.860Z,5.30
2022-12-22T17:09:48.675Z,5.20
2022-12-22T17:12:19.436Z,5.20
2022-12-22T17:14:48.042Z,5.10
2022-12-22T17:17:30.938Z,5.10
2022-12-22T17:20:00.019Z,5.00
2022-12-22T17:22:30.417Z,5.00
2022-12-22T17:25:02.134Z,5.10
2022-12-22T17:27:31.410Z,5.20
2022-12-22T17:30:01.024Z,5.30
2022-12-22T17:32:28.039Z,5.30
2022-12-22T17:34:55.038Z,5.30
2022-12-22T17:37:23.368Z,5.30
2022-12-22T17:39:54.027Z,5.20
2022-12-22T17:42:23.047Z,5.20
2022-12-22T17:44:51.540Z,5.20
2022-12-22T17:47:31.149Z,5.30
2022-12-22T17:49:59.320Z,5.30
2022-12-22T17:52:28.213Z,5.30
2022-12-22T17:54:55.535Z,5.20
2022-12-22T17:57:29.858Z,5.20
2022-12-22T17:59:56.827Z,5.20
2022-12-22T18:02:25.695Z,5.10
2022-12-22T18:04:53.305Z,5.10
2022-12-22T18:07:22.853Z,5.10
2022-12-22T18:09:59.711Z,5.20
2022-12-22T18:12:26.942Z,5.20
2022-12-22T18:14:54.042Z,5.30
2022-12-22T18:17:35.146Z,5.20
2022-12-22T18:20:03.213Z,5.20
2022-12-22T18:22:30.342Z,5.10
2022-12-22T18:24:57.685Z,5.00
2022-12-22T18:27:24.783Z,5.00
2022-12-22T18:29:52.013Z,5.00
2022-12-22T18:32:26.611Z,5.00
2022-12-22T18:34:54.907Z,5.00
2022-12-22T18:37:21.866Z,5.00
2022-12-22T18:39:48.906Z,5.10
2022-12-22T18:42:23.811Z,5.10
2022-12-22T18:44:51.475Z,5.20
2022-12-22T18:47:18.884Z,5.20
2022-12-22T18:49:48.444Z,5.10
2022-12-22T18:52:21.462Z,5.10
2022-12-22T18:54:49.733Z,5.10
2022-12-22T18:57:19.479Z,5.10
2022-12-22T18:59:48.252Z,5.00
2022-12-22T19:02:25.561Z,5.00
2022-12-22T19:04:53.685Z,5.00
2022-12-22T19:07:23.739Z,5.10
2022-12-22T19:09:51.368Z,5.20
2022-12-22T19:12:23.363Z,5.30
2022-12-22T19:14:54.327Z,5.40
2022-12-22T19:17:28.961Z,5.30
2022-12-22T19:19:56.742Z,5.30
2022-12-22T19:22:27.838Z,5.30
2022-12-22T19:24:57.628Z,5.40
2022-12-22T19:27:26.822Z,5.30
2022-12-22T19:30:03.033Z,5.40
2022-12-22T19:32:36.031Z,5.40
2022-12-22T19:35:03.324Z,5.40
2022-12-22T19:37:30.488Z,5.40
2022-12-22T19:40:05.277Z,5.40
2022-12-22T19:42:32.859Z,5.40
2022-12-22T19:45:05.436Z,5.40
2022-12-22T19:47:35.642Z,5.40
2022-12-22T19:50:02.521Z,5.40
2022-12-22T19:52:29.485Z,5.40
2022-12-22T19:54:56.610Z,5.40
2022-12-22T19:57:35.009Z,5.40
2022-12-22T20:00:02.254Z,5.30
2022-12-22T20:02:33.775Z,5.30
2022-12-22T20:05:03.047Z,5.20
2022-12-22T20:07:33.529Z,5.10
2022-12-22T20:10:00.870Z,5.20
2022-12-22T20:12:42.617Z,5.30
2022-12-22T20:15:22.130Z,5.30
2022-12-22T20:17:51.143Z,5.30
2022-12-22T20:20:23.795Z,5.30
2022-12-22T20:22:56.848Z,5.30
2022-12-22T20:25:28.430Z,5.30
2022-12-22T20:27:57.010Z,5.30
2022-12-22T20:30:27.282Z,5.20
2022-12-22T20:32:54.631Z,5.20
2022-12-22T20:35:23.337Z,5.20
2022-12-22T20:37:51.078Z,5.30
2022-12-22T20:40:29.834Z,5.30
2022-12-22T20:42:57.963Z,5.30
2022-12-22T20:45:29.663Z,5.30
2022-12-22T20:47:58.395Z,5.20
2022-12-22T20:50:33.866Z,5.20
2022-12-22T20:53:01.025Z,5.10
2022-12-22T20:55:28.608Z,5.00
2022-12-22T20:57:55.719Z,5.00
2022-12-22T21:00:26.117Z,4.90
2022-12-22T21:02:54.373Z,4.90
2022-12-22T21:05:22.325Z,4.90
2022-12-22T21:07:50.743Z,4.90
2022-12-22T21:10:26.315Z,4.80
2022-12-22T21:12:53.495Z,4.80
2022-12-22T21:15:25.638Z,4.80
2022-12-22T21:17:58.145Z,4.80
2022-12-22T21:20:28.724Z,4.70
2022-12-22T21:22:55.806Z,4.80
2022-12-22T21:25:23.981Z,4.70
2022-12-22T21:27:52.364Z,4.70
2022-12-22T21:30:29.306Z,4.70
2022-12-22T21:33:11.939Z,4.70
2022-12-22T21:35:46.145Z,4.70
2022-12-22T21:38:17.835Z,4.80
2022-12-22T21:40:47.752Z,4.70
2022-12-22T21:43:15.886Z,4.70
2022-12-22T21:45:44.740Z,4.70
2022-12-22T21:48:13.766Z,4.70
2022-12-22T21:50:40.952Z,4.70
2022-12-22T21:53:08.111Z,4.70
2022-12-22T21:55:38.628Z,4.80
2022-12-22T21:58:11.324Z,4.80
2022-12-22T22:00:41.551Z,4.80
2022-12-22T22:03:14.365Z,4.80
2022-12-22T22:05:42.393Z,4.90
2022-12-22T22:08:15.376Z,4.90
2022-12-22T22:10:43.895Z,4.80
2022-12-22T22:13:16.929Z,4.80
2022-12-22T22:15:47.215Z,4.80
2022-12-22T22:18:19.809Z,4.80
2022-12-22T22:20:48.496Z,4.90
2022-12-22T22:23:21.210Z,4.90
2022-12-22T22:25:53.312Z,4.90
2022-12-22T22:28:20.377Z,5.00
2022-12-22T22:30:47.502Z,5.10
2022-12-22T22:33:14.539Z,5.10
2022-12-22T22:35:42.751Z,5.10
2022-12-22T22:38:14.533Z,5.20
2022-12-22T22:40:46.149Z,5.20
2022-12-22T22:43:14.245Z,5.30
2022-12-22T22:45:42.244Z,5.40
2022-12-22T22:48:21.437Z,5.30
2022-12-22T22:50:48.878Z,5.30
2022-12-22T22:53:15.940Z,5.40
2022-12-22T22:55:42.840Z,5.40
2022-12-22T22:58:11.545Z,5.40
2022-12-22T23:00:39.360Z,5.50
2022-12-22T23:03:06.869Z,5.50
2022-12-22T23:05:34.119Z,5.50
2022-12-22T23:08:00.987Z,5.50
2022-12-22T23:10:27.897Z,5.50
2022-12-22T23:12:55.027Z,5.50
2022-12-22T23:15:21.891Z,5.50
2022-12-22T23:17:51.551Z,5.50
2022-12-22T23:20:18.559Z,5.50
2022-12-22T23:22:45.473Z,5.50
2022-12-22T23:25:12.376Z,5.40
2022-12-22T23:27:39.259Z,5.40
2022-12-22T23:30:07.247Z,5.30
2022-12-22T23:32:34.191Z,5.30
2022-12-22T23:35:01.041Z,5.30
2022-12-22T23:37:27.985Z,5.30
2022-12-22T23:39:56.112Z,5.30
2022-12-22T23:42:28.753Z,5.20
2022-12-22T23:44:55.653Z,5.20
2022-12-22T23:47:22.561Z,5.10
2022-12-22T23:49:49.429Z,5.10
2022-12-22T23:52:16.314Z,5.10
2022-12-22T23:54:43.237Z,5.00
2022-12-22T23:57:10.112Z,5.00
2022-12-22T23:59:37.007Z,5.00
